PWSweather.com
Personal Weather Stations
Station Observations
MADWEATHER
MadeiraPT

MadeiraPT

Lat: 32.735, Lon: -17.194

Elevation: 1063

Station Type: Davis VantagePro2

Latest ConditionsUpdated 4:40:04 PM GMT Saturday, Aug 29, 2015
Currently Today's Max Today's Min Today's Average
Temperature 74.2°F23.4°C 76.7°F24.8°C 66.0°F18.9°C 71.1°F21.7°C
Dew Point 68.3°F20.2°C 69.3°F20.7°C 61.7°F16.5°C 65.3°F18.5°C
Winds 3.3 mph WSW5.3 kmh WSW 7.9 mph WSW12.7 kmh WSW - 3.3 mph 5.3 kmh
Wind Gusts 4.0 mph6.4 kmh 13.0 mph20.9 kmh - -
Humidity 82% 91% 72% 82%
Pressure 29.94 in1013.9 mb 30.01 in1016.3 mb 29.93 in1013.5 mb -
Hour Temp Dew Point Humidity Winds Wind Gusts Pressure Precip Precip Rate Daily Precip Total
04:40 PM 74.2°F23.4°C 68.3°F20.2°C 82% 3.3 mph WSW5.3 kmh WSW 4.0 mph6.4 kmh 29.94 in1013.9 mb - 0.00 in0.0 mm 0.00 in0.0 mm
04:30 PM 74.7°F23.7°C 68.1°F20.1°C 80% 4.2 mph WSW6.8 kmh WSW 6.0 mph9.7 kmh 29.94 in1013.9 mb - 0.00 in0.0 mm 0.00 in0.0 mm
04:20 PM 75.7°F24.3°C 68.4°F20.2°C 78% 4.0 mph WSW6.4 kmh WSW 5.0 mph8.0 kmh 29.94 in1013.9 mb - 0.00 in0.0 mm 0.00 in0.0 mm
04:10 PM 76.7°F24.8°C 69.0°F20.6°C 77% 6.2 mph WSW10.0 kmh WSW 8.0 mph12.9 kmh 29.93 in1013.5 mb - 0.00 in0.0 mm 0.00 in0.0 mm
04:00 PM 76.3°F24.6°C 68.5°F20.3°C 77% 6.4 mph WSW10.3 kmh WSW 10.0 mph16.1 kmh 29.93 in1013.5 mb - 0.00 in0.0 mm 0.00 in0.0 mm
03:50 PM 75.5°F24.2°C 67.8°F19.9°C 77% 5.6 mph WSW9.0 kmh WSW 8.0 mph12.9 kmh 29.94 in1013.9 mb - 0.00 in0.0 mm 0.00 in0.0 mm
03:40 PM 76.1°F24.5°C 68.3°F20.2°C 77% 5.0 mph WSW8.0 kmh WSW 9.0 mph14.5 kmh 29.94 in1013.9 mb - 0.00 in0.0 mm 0.00 in0.0 mm
03:30 PM 75.8°F24.3°C 68.1°F20.1°C 77% 7.9 mph WSW12.7 kmh WSW 10.0 mph16.1 kmh 29.94 in1013.9 mb - 0.00 in0.0 mm 0.00 in0.0 mm
03:20 PM 75.6°F24.2°C 68.6°F20.3°C 79% 7.1 mph WSW11.4 kmh WSW 11.0 mph17.7 kmh 29.94 in1013.9 mb - 0.00 in0.0 mm 0.00 in0.0 mm
03:10 PM 76.2°F24.6°C 68.8°F20.4°C 78% 7.7 mph WSW12.4 kmh WSW 13.0 mph20.9 kmh 29.94 in1013.9 mb - 0.00 in0.0 mm 0.00 in0.0 mm
03:00 PM 76.2°F24.6°C 68.8°F20.4°C 78% 7.9 mph WSW12.7 kmh WSW 10.0 mph16.1 kmh 29.94 in1013.9 mb - 0.00 in0.0 mm 0.00 in0.0 mm
02:50 PM 75.9°F24.4°C 68.6°F20.3°C 78% 6.6 mph WSW10.6 kmh WSW 10.0 mph16.1 kmh 29.94 in1013.9 mb - 0.00 in0.0 mm 0.00 in0.0 mm
02:40 PM 75.8°F24.3°C 68.4°F20.2°C 78% 6.2 mph WSW10.0 kmh WSW 10.0 mph16.1 kmh 29.94 in1013.9 mb - 0.00 in0.0 mm 0.00 in0.0 mm
02:30 PM 76.1°F24.5°C 68.0°F20.0°C 76% 6.0 mph WSW9.7 kmh WSW 7.0 mph11.3 kmh 29.94 in1013.9 mb - 0.00 in0.0 mm 0.00 in0.0 mm
02:20 PM 76.4°F24.7°C 68.6°F20.3°C 77% 5.7 mph WSW9.2 kmh WSW 9.0 mph14.5 kmh 29.95 in1014.2 mb - 0.00 in0.0 mm 0.00 in0.0 mm
02:10 PM 76.4°F24.7°C 69.0°F20.6°C 78% 6.9 mph WSW11.1 kmh WSW 11.0 mph17.7 kmh 29.95 in1014.2 mb - 0.00 in0.0 mm 0.00 in0.0 mm
02:00 PM 76.2°F24.6°C 69.2°F20.7°C 79% 6.5 mph WSW10.5 kmh WSW 9.0 mph14.5 kmh 29.96 in1014.6 mb - 0.00 in0.0 mm 0.00 in0.0 mm
01:50 PM 76.0°F24.4°C 68.6°F20.3°C 78% 6.7 mph WSW10.8 kmh WSW 10.0 mph16.1 kmh 29.96 in1014.6 mb - 0.00 in0.0 mm 0.00 in0.0 mm
01:40 PM 76.3°F24.6°C 69.3°F20.7°C 79% 5.2 mph WSW8.4 kmh WSW 8.0 mph12.9 kmh 29.97 in1014.9 mb - 0.00 in0.0 mm 0.00 in0.0 mm
01:30 PM 76.3°F24.6°C 68.9°F20.5°C 78% 5.2 mph WSW8.4 kmh WSW 9.0 mph14.5 kmh 29.97 in1014.9 mb - 0.00 in0.0 mm 0.00 in0.0 mm
01:20 PM 76.4°F24.7°C 69.0°F20.6°C 78% 5.9 mph WSW9.5 kmh WSW 7.0 mph11.3 kmh 29.96 in1014.6 mb - 0.00 in0.0 mm 0.00 in0.0 mm
01:10 PM 76.0°F24.4°C 69.0°F20.6°C 79% 4.3 mph WSW6.9 kmh WSW 7.0 mph11.3 kmh 29.97 in1014.9 mb - 0.00 in0.0 mm 0.00 in0.0 mm
01:00 PM 76.0°F24.4°C 68.3°F20.2°C 77% 5.2 mph WSW8.4 kmh WSW 9.0 mph14.5 kmh 29.96 in1014.6 mb - 0.00 in0.0 mm 0.00 in0.0 mm
12:50 PM 75.1°F23.9°C 68.1°F20.1°C 79% 5.1 mph WSW8.2 kmh WSW 6.0 mph9.7 kmh 29.96 in1014.6 mb - 0.00 in0.0 mm 0.00 in0.0 mm
12:40 PM 74.7°F23.7°C 68.1°F20.1°C 80% 5.0 mph WSW8.0 kmh WSW 7.0 mph11.3 kmh 29.96 in1014.6 mb - 0.00 in0.0 mm 0.00 in0.0 mm
12:30 PM 74.4°F23.6°C 67.5°F19.7°C 79% 6.5 mph WSW10.5 kmh WSW 7.0 mph11.3 kmh 29.96 in1014.6 mb - 0.00 in0.0 mm 0.00 in0.0 mm
12:20 PM 74.6°F23.7°C 68.4°F20.2°C 81% 5.1 mph WSW8.2 kmh WSW 8.0 mph12.9 kmh 29.97 in1014.9 mb - 0.00 in0.0 mm 0.00 in0.0 mm
12:10 PM 74.4°F23.6°C 68.5°F20.3°C 82% 5.6 mph WSW9.0 kmh WSW 7.0 mph11.3 kmh 29.97 in1014.9 mb - 0.00 in0.0 mm 0.00 in0.0 mm
12:00 PM 74.5°F23.6°C 68.7°F20.4°C 82% 5.5 mph WSW8.9 kmh WSW 7.0 mph11.3 kmh 29.97 in1014.9 mb - 0.00 in0.0 mm 0.00 in0.0 mm
11:50 AM 75.0°F23.9°C 68.4°F20.2°C 80% 4.2 mph WSW6.8 kmh WSW 6.0 mph9.7 kmh 29.97 in1014.9 mb - 0.00 in0.0 mm 0.00 in0.0 mm
11:40 AM 74.6°F23.7°C 68.3°F20.2°C 81% 5.1 mph WSW8.2 kmh WSW 7.0 mph11.3 kmh 29.97 in1014.9 mb - 0.00 in0.0 mm 0.00 in0.0 mm
11:30 AM 74.4°F23.6°C 68.6°F20.3°C 82% 3.8 mph WSW6.1 kmh WSW 5.0 mph8.0 kmh 29.97 in1014.9 mb - 0.00 in0.0 mm 0.00 in0.0 mm
11:20 AM 73.8°F23.2°C 67.9°F19.9°C 82% 6.0 mph WSW9.7 kmh WSW 7.0 mph11.3 kmh 29.97 in1014.9 mb - 0.00 in0.0 mm 0.00 in0.0 mm
11:10 AM 74.0°F23.3°C 68.5°F20.3°C 83% 5.2 mph WSW8.4 kmh WSW 10.0 mph16.1 kmh 29.97 in1014.9 mb - 0.00 in0.0 mm 0.00 in0.0 mm
11:00 AM 73.7°F23.2°C 68.2°F20.1°C 83% 4.9 mph WSW7.9 kmh WSW 6.0 mph9.7 kmh 29.97 in1014.9 mb - 0.00 in0.0 mm 0.00 in0.0 mm
10:50 AM 74.8°F23.8°C 67.8°F19.9°C 79% 3.8 mph WSW6.1 kmh WSW 4.0 mph6.4 kmh 29.97 in1014.9 mb - 0.00 in0.0 mm 0.00 in0.0 mm
10:40 AM 75.2°F24.0°C 67.1°F19.5°C 76% 4.0 mph WSW6.4 kmh WSW 6.0 mph9.7 kmh 29.97 in1014.9 mb - 0.00 in0.0 mm 0.00 in0.0 mm
10:30 AM 74.7°F23.7°C 67.0°F19.4°C 77% 1.6 mph WSW2.6 kmh WSW 3.0 mph4.8 kmh 29.97 in1014.9 mb - 0.00 in0.0 mm 0.00 in0.0 mm
10:20 AM 75.1°F23.9°C 65.9°F18.8°C 73% 3.7 mph WSW6.0 kmh WSW 5.0 mph8.0 kmh 29.97 in1014.9 mb - 0.00 in0.0 mm 0.00 in0.0 mm
10:10 AM 74.9°F23.8°C 65.7°F18.7°C 73% 1.4 mph WSW2.3 kmh WSW 3.0 mph4.8 kmh 29.97 in1014.9 mb - 0.00 in0.0 mm 0.00 in0.0 mm
10:00 AM 74.5°F23.6°C 66.1°F18.9°C 75% 2.2 mph WSW3.5 kmh WSW 4.0 mph6.4 kmh 29.97 in1014.9 mb - 0.00 in0.0 mm 0.00 in0.0 mm
09:50 AM 73.7°F23.2°C 65.3°F18.5°C 75% 2.7 mph WSW4.3 kmh WSW 4.0 mph6.4 kmh 29.98 in1015.2 mb - 0.00 in0.0 mm 0.00 in0.0 mm
09:40 AM 74.5°F23.6°C 64.9°F18.3°C 72% 2.5 mph WSW4.0 kmh WSW 5.0 mph8.0 kmh 29.97 in1014.9 mb - 0.00 in0.0 mm 0.00 in0.0 mm
09:30 AM 74.3°F23.5°C 64.7°F18.2°C 72% 1.8 mph WSW2.9 kmh WSW 5.0 mph8.0 kmh 29.96 in1014.6 mb - 0.00 in0.0 mm 0.00 in0.0 mm
09:20 AM 74.2°F23.4°C 65.0°F18.3°C 73% Calm Calm -- 29.97 in1014.9 mb - 0.00 in0.0 mm 0.00 in0.0 mm
09:10 AM 73.9°F23.3°C 64.6°F18.1°C 73% 2.9 mph WSW4.7 kmh WSW 3.0 mph4.8 kmh 29.97 in1014.9 mb - 0.00 in0.0 mm 0.00 in0.0 mm
09:00 AM 73.2°F22.9°C 64.8°F18.2°C 75% 0.3 mph WSW0.5 kmh WSW 3.0 mph4.8 kmh 29.97 in1014.9 mb - 0.00 in0.0 mm 0.00 in0.0 mm
08:50 AM 72.7°F22.6°C 65.0°F18.3°C 77% 1.4 mph WSW2.3 kmh WSW 3.0 mph4.8 kmh 29.97 in1014.9 mb - 0.00 in0.0 mm 0.00 in0.0 mm
08:40 AM 72.3°F22.4°C 64.7°F18.2°C 77% 1.9 mph WSW3.1 kmh WSW 4.0 mph6.4 kmh 29.97 in1014.9 mb - 0.00 in0.0 mm 0.00 in0.0 mm
08:30 AM 71.6°F22.0°C 64.8°F18.2°C 79% 2.4 mph WSW3.9 kmh WSW 3.0 mph4.8 kmh 29.97 in1014.9 mb - 0.00 in0.0 mm 0.00 in0.0 mm
08:20 AM 71.4°F21.9°C 64.5°F18.1°C 79% 3.3 mph WSW5.3 kmh WSW 4.0 mph6.4 kmh 29.97 in1014.9 mb - 0.00 in0.0 mm 0.00 in0.0 mm
08:10 AM 71.0°F21.7°C 64.1°F17.8°C 79% 2.8 mph WSW4.5 kmh WSW 3.0 mph4.8 kmh 29.97 in1014.9 mb - 0.00 in0.0 mm 0.00 in0.0 mm
08:00 AM 70.1°F21.2°C 64.0°F17.8°C 81% Calm Calm -- 29.97 in1014.9 mb - 0.00 in0.0 mm 0.00 in0.0 mm
07:50 AM 69.2°F20.7°C 63.5°F17.5°C 82% Calm Calm -- 29.96 in1014.6 mb - 0.00 in0.0 mm 0.00 in0.0 mm
07:40 AM 68.3°F20.2°C 63.3°F17.4°C 84% 1.3 mph WSW2.1 kmh WSW 2.0 mph3.2 kmh 29.96 in1014.6 mb - 0.00 in0.0 mm 0.00 in0.0 mm
07:30 AM 67.4°F19.7°C 62.4°F16.9°C 84% 2.5 mph WSW4.0 kmh WSW 3.0 mph4.8 kmh 29.96 in1014.6 mb - 0.00 in0.0 mm 0.00 in0.0 mm
07:20 AM 66.8°F19.3°C 62.1°F16.7°C 85% 3.3 mph WSW5.3 kmh WSW 4.0 mph6.4 kmh 29.96 in1014.6 mb - 0.00 in0.0 mm 0.00 in0.0 mm
07:10 AM 66.3°F19.1°C 62.0°F16.7°C 86% 3.3 mph WSW5.3 kmh WSW 4.0 mph6.4 kmh 29.96 in1014.6 mb - 0.00 in0.0 mm 0.00 in0.0 mm
07:00 AM 66.1°F18.9°C 61.7°F16.5°C 86% 1.7 mph WSW2.7 kmh WSW 3.0 mph4.8 kmh 29.96 in1014.6 mb - 0.00 in0.0 mm 0.00 in0.0 mm
06:50 AM 66.0°F18.9°C 62.0°F16.7°C 87% 2.4 mph WSW3.9 kmh WSW 3.0 mph4.8 kmh 29.96 in1014.6 mb - 0.00 in0.0 mm 0.00 in0.0 mm
06:40 AM 66.1°F18.9°C 62.4°F16.9°C 88% 3.1 mph WSW5.0 kmh WSW 4.0 mph6.4 kmh 29.96 in1014.6 mb - 0.00 in0.0 mm 0.00 in0.0 mm
06:30 AM 66.2°F19.0°C 62.5°F16.9°C 88% 2.4 mph WSW3.9 kmh WSW 3.0 mph4.8 kmh 29.96 in1014.6 mb - 0.00 in0.0 mm 0.00 in0.0 mm
06:20 AM 66.3°F19.1°C 62.3°F16.8°C 87% 1.4 mph WSW2.3 kmh WSW 2.0 mph3.2 kmh 29.96 in1014.6 mb - 0.00 in0.0 mm 0.00 in0.0 mm
06:10 AM 66.2°F19.0°C 61.9°F16.6°C 86% 1.9 mph WSW3.1 kmh WSW 3.0 mph4.8 kmh 29.95 in1014.2 mb - 0.00 in0.0 mm 0.00 in0.0 mm
06:00 AM 66.3°F19.1°C 62.3°F16.8°C 87% Calm Calm -- 29.95 in1014.2 mb - 0.00 in0.0 mm 0.00 in0.0 mm
05:50 AM 66.3°F19.1°C 62.0°F16.7°C 86% 2.4 mph WSW3.9 kmh WSW 4.0 mph6.4 kmh 29.95 in1014.2 mb - 0.00 in0.0 mm 0.00 in0.0 mm
05:40 AM 66.2°F19.0°C 62.2°F16.8°C 87% 1.6 mph WSW2.6 kmh WSW 2.0 mph3.2 kmh 29.95 in1014.2 mb - 0.00 in0.0 mm 0.00 in0.0 mm
05:30 AM 66.3°F19.1°C 62.3°F16.8°C 87% 2.7 mph WSW4.3 kmh WSW 4.0 mph6.4 kmh 29.95 in1014.2 mb - 0.00 in0.0 mm 0.00 in0.0 mm
05:20 AM 66.2°F19.0°C 62.3°F16.8°C 87% 2.3 mph WSW3.7 kmh WSW 3.0 mph4.8 kmh 29.95 in1014.2 mb - 0.00 in0.0 mm 0.00 in0.0 mm
05:10 AM 66.2°F19.0°C 62.6°F17.0°C 88% 3.5 mph WSW5.6 kmh WSW 5.0 mph8.0 kmh 29.95 in1014.2 mb - 0.00 in0.0 mm 0.00 in0.0 mm
05:00 AM 66.3°F19.1°C 62.6°F17.0°C 88% 3.5 mph WSW5.6 kmh WSW 4.0 mph6.4 kmh 29.95 in1014.2 mb - 0.00 in0.0 mm 0.00 in0.0 mm
04:50 AM 66.4°F19.1°C 62.8°F17.1°C 88% 3.7 mph WSW6.0 kmh WSW 4.0 mph6.4 kmh 29.95 in1014.2 mb - 0.00 in0.0 mm 0.00 in0.0 mm
04:40 AM 66.5°F19.2°C 62.8°F17.1°C 88% 3.0 mph WSW4.8 kmh WSW 4.0 mph6.4 kmh 29.95 in1014.2 mb - 0.00 in0.0 mm 0.00 in0.0 mm
04:30 AM 66.5°F19.2°C 62.8°F17.1°C 88% 3.3 mph WSW5.3 kmh WSW 4.0 mph6.4 kmh 29.95 in1014.2 mb - 0.00 in0.0 mm 0.00 in0.0 mm
04:20 AM 66.5°F19.2°C 62.8°F17.1°C 88% 2.2 mph WSW3.5 kmh WSW 3.0 mph4.8 kmh 29.96 in1014.6 mb - 0.00 in0.0 mm 0.00 in0.0 mm
04:10 AM 66.6°F19.2°C 63.3°F17.4°C 89% 3.1 mph WSW5.0 kmh WSW 4.0 mph6.4 kmh 29.96 in1014.6 mb - 0.00 in0.0 mm 0.00 in0.0 mm
04:00 AM 66.5°F19.2°C 63.2°F17.3°C 89% 2.7 mph WSW4.3 kmh WSW 4.0 mph6.4 kmh 29.96 in1014.6 mb - 0.00 in0.0 mm 0.00 in0.0 mm
03:50 AM 66.6°F19.2°C 63.6°F17.6°C 90% 2.1 mph WSW3.4 kmh WSW 3.0 mph4.8 kmh 29.97 in1014.9 mb - 0.00 in0.0 mm 0.00 in0.0 mm
03:40 AM 66.7°F19.3°C 63.7°F17.6°C 90% 3.2 mph WSW5.1 kmh WSW 4.0 mph6.4 kmh 29.97 in1014.9 mb - 0.00 in0.0 mm 0.00 in0.0 mm
03:30 AM 66.9°F19.4°C 63.9°F17.7°C 90% 2.3 mph WSW3.7 kmh WSW 3.0 mph4.8 kmh 29.97 in1014.9 mb - 0.00 in0.0 mm 0.00 in0.0 mm
03:20 AM 67.1°F19.5°C 64.4°F18.0°C 91% 2.9 mph WSW4.7 kmh WSW 4.0 mph6.4 kmh 29.98 in1015.2 mb - 0.00 in0.0 mm 0.00 in0.0 mm
03:10 AM 66.9°F19.4°C 63.9°F17.7°C 90% 3.2 mph WSW5.1 kmh WSW 4.0 mph6.4 kmh 29.98 in1015.2 mb - 0.00 in0.0 mm 0.00 in0.0 mm
03:00 AM 67.1°F19.5°C 64.1°F17.8°C 90% 3.1 mph WSW5.0 kmh WSW 4.0 mph6.4 kmh 29.98 in1015.2 mb - 0.00 in0.0 mm 0.00 in0.0 mm
02:50 AM 67.1°F19.5°C 64.1°F17.8°C 90% 1.4 mph WSW2.3 kmh WSW 2.0 mph3.2 kmh 29.98 in1015.2 mb - 0.00 in0.0 mm 0.00 in0.0 mm
02:40 AM 67.0°F19.4°C 64.0°F17.8°C 90% 2.0 mph WSW3.2 kmh WSW 3.0 mph4.8 kmh 29.98 in1015.2 mb - 0.00 in0.0 mm 0.00 in0.0 mm
02:30 AM 66.9°F19.4°C 63.6°F17.6°C 89% 2.4 mph WSW3.9 kmh WSW 3.0 mph4.8 kmh 29.98 in1015.2 mb - 0.00 in0.0 mm 0.00 in0.0 mm
02:20 AM 66.6°F19.2°C 63.2°F17.3°C 89% 1.9 mph WSW3.1 kmh WSW 2.0 mph3.2 kmh 29.98 in1015.2 mb - 0.00 in0.0 mm 0.00 in0.0 mm
02:10 AM 66.8°F19.3°C 63.5°F17.5°C 89% 1.7 mph WSW2.7 kmh WSW 3.0 mph4.8 kmh 29.99 in1015.6 mb - 0.00 in0.0 mm 0.00 in0.0 mm
02:00 AM 67.1°F19.5°C 63.8°F17.7°C 89% 1.7 mph WSW2.7 kmh WSW 2.0 mph3.2 kmh 29.98 in1015.2 mb - 0.00 in0.0 mm 0.00 in0.0 mm
01:50 AM 67.2°F19.6°C 63.8°F17.7°C 89% 1.1 mph WSW1.8 kmh WSW 2.0 mph3.2 kmh 29.99 in1015.6 mb - 0.00 in0.0 mm 0.00 in0.0 mm
01:40 AM 67.5°F19.7°C 63.8°F17.7°C 88% 1.5 mph WSW2.4 kmh WSW 2.0 mph3.2 kmh 29.99 in1015.6 mb - 0.00 in0.0 mm 0.00 in0.0 mm
01:30 AM 67.7°F19.8°C 63.7°F17.6°C 87% 2.7 mph WSW4.3 kmh WSW 4.0 mph6.4 kmh 29.99 in1015.6 mb - 0.00 in0.0 mm 0.00 in0.0 mm
01:20 AM 68.0°F20.0°C 64.3°F17.9°C 88% Calm Calm -- 29.99 in1015.6 mb - 0.00 in0.0 mm 0.00 in0.0 mm
01:10 AM 67.9°F19.9°C 63.9°F17.7°C 87% Calm Calm -- 29.99 in1015.6 mb - 0.00 in0.0 mm 0.00 in0.0 mm
01:00 AM 67.9°F19.9°C 63.2°F17.3°C 85% Calm Calm -- 29.99 in1015.6 mb - 0.00 in0.0 mm 0.00 in0.0 mm
12:50 AM 68.0°F20.0°C 63.0°F17.2°C 84% Calm Calm -- 30.00 in1015.9 mb - 0.00 in0.0 mm 0.00 in0.0 mm
12:40 AM 68.1°F20.1°C 63.1°F17.3°C 84% Calm Calm -- 30.00 in1015.9 mb - 0.00 in0.0 mm 0.00 in0.0 mm
12:30 AM 68.0°F20.0°C 63.0°F17.2°C 84% 1.4 mph WSW2.3 kmh WSW 2.0 mph3.2 kmh 30.00 in1015.9 mb - 0.00 in0.0 mm 0.00 in0.0 mm
12:20 AM 68.0°F20.0°C 62.3°F16.8°C 82% 1.9 mph WSW3.1 kmh WSW 3.0 mph4.8 kmh 30.01 in1016.3 mb - 0.00 in0.0 mm 0.00 in0.0 mm
12:10 AM 67.9°F19.9°C 62.2°F16.8°C 82% 2.5 mph WSW4.0 kmh WSW 3.0 mph4.8 kmh 30.01 in1016.3 mb - 0.00 in0.0 mm 0.00 in0.0 mm
12:00 AM 67.7°F19.8°C 61.7°F16.5°C 81% Calm Calm -- 30.01 in1016.3 mb - 0.00 in0.0 mm 0.00 in0.0 mm